sensor_id;sensor_type;location;lat;lon;timestamp;temperature;humidity
20208;DHT22;10263;48.716;8.760;2024-02-15T00:00:51;9.00;99.90
20208;DHT22;10263;48.716;8.760;2024-02-15T00:08:13;8.90;99.90
20208;DHT22;10263;48.716;8.760;2024-02-15T00:10:42;9.10;99.90
20208;DHT22;10263;48.716;8.760;2024-02-15T00:13:11;8.90;99.90
20208;DHT22;10263;48.716;8.760;2024-02-15T00:20:33;9.10;99.90
20208;DHT22;10263;48.716;8.760;2024-02-15T00:23:00;9.30;99.90
20208;DHT22;10263;48.716;8.760;2024-02-15T00:25:27;8.90;99.90
20208;DHT22;10263;48.716;8.760;2024-02-15T00:27:55;9.50;99.90
20208;DHT22;10263;48.716;8.760;2024-02-15T00:30:22;8.70;99.90
20208;DHT22;10263;48.716;8.760;2024-02-15T00:35:16;9.10;99.90
20208;DHT22;10263;48.716;8.760;2024-02-15T00:37:44;9.00;99.90
20208;DHT22;10263;48.716;8.760;2024-02-15T00:40:11;8.60;99.90
20208;DHT22;10263;48.716;8.760;2024-02-15T00:45:07;8.70;99.90
20208;DHT22;10263;48.716;8.760;2024-02-15T00:47:34;8.30;99.90
20208;DHT22;10263;48.716;8.760;2024-02-15T00:52:28;8.20;99.90
20208;DHT22;10263;48.716;8.760;2024-02-15T00:57:23;8.40;99.90
20208;DHT22;10263;48.716;8.760;2024-02-15T00:59:50;8.20;99.90
20208;DHT22;10263;48.716;8.760;2024-02-15T01:02:18;8.20;99.90
20208;DHT22;10263;48.716;8.760;2024-02-15T01:09:39;8.00;99.90
20208;DHT22;10263;48.716;8.760;2024-02-15T01:12:06;8.00;99.90
20208;DHT22;10263;48.716;8.760;2024-02-15T01:14:33;8.00;99.90
20208;DHT22;10263;48.716;8.760;2024-02-15T01:17:00;7.60;99.90
20208;DHT22;10263;48.716;8.760;2024-02-15T01:19:28;7.70;99.90
20208;DHT22;10263;48.716;8.760;2024-02-15T01:21:55;9.50;99.90
20208;DHT22;10263;48.716;8.760;2024-02-15T01:26:51;7.80;99.90
20208;DHT22;10263;48.716;8.760;2024-02-15T01:31:46;7.20;99.90
20208;DHT22;10263;48.716;8.760;2024-02-15T01:36:41;7.00;99.90
20208;DHT22;10263;48.716;8.760;2024-02-15T01:39:08;6.90;99.90
20208;DHT22;10263;48.716;8.760;2024-02-15T01:44:01;7.10;99.90
20208;DHT22;10263;48.716;8.760;2024-02-15T01:46:28;7.20;99.90
20208;DHT22;10263;48.716;8.760;2024-02-15T01:51:25;6.90;99.90
20208;DHT22;10263;48.716;8.760;2024-02-15T01:53:54;7.10;99.90
20208;DHT22;10263;48.716;8.760;2024-02-15T01:56:22;7.40;99.90
20208;DHT22;10263;48.716;8.760;2024-02-15T01:58:49;6.80;99.90
20208;DHT22;10263;48.716;8.760;2024-02-15T02:01:17;7.00;99.90
20208;DHT22;10263;48.716;8.760;2024-02-15T02:03:44;7.00;99.90
20208;DHT22;10263;48.716;8.760;2024-02-15T02:06:11;6.60;99.90
20208;DHT22;10263;48.716;8.760;2024-02-15T02:11:07;6.80;99.90
20208;DHT22;10263;48.716;8.760;2024-02-15T02:18:29;6.40;99.90
20208;DHT22;10263;48.716;8.760;2024-02-15T02:23:26;6.10;99.90
20208;DHT22;10263;48.716;8.760;2024-02-15T02:25:54;6.10;99.90
20208;DHT22;10263;48.716;8.760;2024-02-15T02:28:22;6.00;99.90
20208;DHT22;10263;48.716;8.760;2024-02-15T02:30:49;6.40;99.90
20208;DHT22;10263;48.716;8.760;2024-02-15T02:35:44;6.10;99.90
20208;DHT22;10263;48.716;8.760;2024-02-15T02:38:13;5.80;99.90
20208;DHT22;10263;48.716;8.760;2024-02-15T02:40:40;6.00;99.90
20208;DHT22;10263;48.716;8.760;2024-02-15T02:43:08;5.90;99.90
20208;DHT22;10263;48.716;8.760;2024-02-15T02:45:35;6.20;99.90
20208;DHT22;10263;48.716;8.760;2024-02-15T02:50:29;5.70;99.90
20208;DHT22;10263;48.716;8.760;2024-02-15T02:52:56;6.20;99.90
20208;DHT22;10263;48.716;8.760;2024-02-15T02:55:23;5.90;99.90
20208;DHT22;10263;48.716;8.760;2024-02-15T03:00:22;6.10;99.90
20208;DHT22;10263;48.716;8.760;2024-02-15T03:07:46;5.60;99.90
20208;DHT22;10263;48.716;8.760;2024-02-15T03:10:13;5.90;99.90
20208;DHT22;10263;48.716;8.760;2024-02-15T03:12:40;5.50;99.90
20208;DHT22;10263;48.716;8.760;2024-02-15T03:18:20;6.00;99.90
20208;DHT22;10263;48.716;8.760;2024-02-15T03:20:50;5.50;99.90
20208;DHT22;10263;48.716;8.760;2024-02-15T03:23:16;5.60;99.90
20208;DHT22;10263;48.716;8.760;2024-02-15T03:25:43;5.80;99.90
20208;DHT22;10263;48.716;8.760;2024-02-15T03:28:10;5.40;99.90
20208;DHT22;10263;48.716;8.760;2024-02-15T03:30:37;5.50;99.90
20208;DHT22;10263;48.716;8.760;2024-02-15T03:33:04;5.40;99.90
20208;DHT22;10263;48.716;8.760;2024-02-15T03:35:32;5.40;99.90
20208;DHT22;10263;48.716;8.760;2024-02-15T03:37:59;5.40;99.90
20208;DHT22;10263;48.716;8.760;2024-02-15T03:40:26;5.10;99.90
20208;DHT22;10263;48.716;8.760;2024-02-15T03:42:54;5.50;99.90
20208;DHT22;10263;48.716;8.760;2024-02-15T03:45:21;5.60;99.90
20208;DHT22;10263;48.716;8.760;2024-02-15T03:47:51;4.90;99.90
20208;DHT22;10263;48.716;8.760;2024-02-15T03:50:18;6.80;99.90
20208;DHT22;10263;48.716;8.760;2024-02-15T03:52:49;5.20;99.90
20208;DHT22;10263;48.716;8.760;2024-02-15T03:55:17;5.30;99.90
20208;DHT22;10263;48.716;8.760;2024-02-15T03:57:43;5.70;99.90
20208;DHT22;10263;48.716;8.760;2024-02-15T04:00:12;5.60;99.90
20208;DHT22;10263;48.716;8.760;2024-02-15T04:02:39;5.40;99.90
20208;DHT22;10263;48.716;8.760;2024-02-15T04:05:07;5.70;99.90
20208;DHT22;10263;48.716;8.760;2024-02-15T04:07:35;6.10;99.90
20208;DHT22;10263;48.716;8.760;2024-02-15T04:10:06;5.80;99.90
20208;DHT22;10263;48.716;8.760;2024-02-15T04:12:33;5.80;99.90
20208;DHT22;10263;48.716;8.760;2024-02-15T04:15:00;5.90;99.90
20208;DHT22;10263;48.716;8.760;2024-02-15T04:17:31;5.80;99.90
20208;DHT22;10263;48.716;8.760;2024-02-15T04:20:00;6.00;99.90
20208;DHT22;10263;48.716;8.760;2024-02-15T04:22:29;5.90;99.90
20208;DHT22;10263;48.716;8.760;2024-02-15T04:24:57;6.00;99.90
20208;DHT22;10263;48.716;8.760;2024-02-15T04:27:25;6.00;99.90
20208;DHT22;10263;48.716;8.760;2024-02-15T04:32:20;5.70;99.90
20208;DHT22;10263;48.716;8.760;2024-02-15T04:34:47;5.70;99.90
20208;DHT22;10263;48.716;8.760;2024-02-15T04:37:14;6.20;99.90
20208;DHT22;10263;48.716;8.760;2024-02-15T04:39:42;5.90;99.90
20208;DHT22;10263;48.716;8.760;2024-02-15T04:42:09;5.90;99.90
20208;DHT22;10263;48.716;8.760;2024-02-15T04:44:39;6.00;99.90
20208;DHT22;10263;48.716;8.760;2024-02-15T04:47:06;8.50;99.90
20208;DHT22;10263;48.716;8.760;2024-02-15T04:49:34;6.10;99.90
20208;DHT22;10263;48.716;8.760;2024-02-15T04:52:02;6.10;99.90
20208;DHT22;10263;48.716;8.760;2024-02-15T04:54:29;6.30;99.90
20208;DHT22;10263;48.716;8.760;2024-02-15T04:56:56;6.30;99.90
20208;DHT22;10263;48.716;8.760;2024-02-15T04:59:23;6.30;99.90
20208;DHT22;10263;48.716;8.760;2024-02-15T05:01:52;6.10;99.90
20208;DHT22;10263;48.716;8.760;2024-02-15T05:04:19;6.20;99.90
20208;DHT22;10263;48.716;8.760;2024-02-15T05:06:46;6.20;99.90
20208;DHT22;10263;48.716;8.760;2024-02-15T05:09:13;5.90;99.90
20208;DHT22;10263;48.716;8.760;2024-02-15T05:11:40;5.80;99.90
20208;DHT22;10263;48.716;8.760;2024-02-15T05:19:14;6.10;99.90
20208;DHT22;10263;48.716;8.760;2024-02-15T05:21:42;5.30;99.90
20208;DHT22;10263;48.716;8.760;2024-02-15T05:24:10;6.20;99.90
20208;DHT22;10263;48.716;8.760;2024-02-15T05:29:04;5.80;99.90
20208;DHT22;10263;48.716;8.760;2024-02-15T05:36:28;5.90;99.90
20208;DHT22;10263;48.716;8.760;2024-02-15T05:38:56;5.90;99.90
20208;DHT22;10263;48.716;8.760;2024-02-15T05:41:23;5.70;99.90
20208;DHT22;10263;48.716;8.760;2024-02-15T05:46:19;6.10;99.90
20208;DHT22;10263;48.716;8.760;2024-02-15T05:48:47;6.20;99.90
20208;DHT22;10263;48.716;8.760;2024-02-15T05:51:15;6.30;99.90
20208;DHT22;10263;48.716;8.760;2024-02-15T05:53:43;6.20;99.90
20208;DHT22;10263;48.716;8.760;2024-02-15T05:56:10;5.80;99.90
20208;DHT22;10263;48.716;8.760;2024-02-15T05:58:38;6.00;99.90
20208;DHT22;10263;48.716;8.760;2024-02-15T06:01:06;5.80;99.90
20208;DHT22;10263;48.716;8.760;2024-02-15T06:03:33;6.20;99.90
20208;DHT22;10263;48.716;8.760;2024-02-15T06:06:04;8.60;99.90
20208;DHT22;10263;48.716;8.760;2024-02-15T06:11:00;5.90;99.90
20208;DHT22;10263;48.716;8.760;2024-02-15T06:13:27;5.80;99.90
20208;DHT22;10263;48.716;8.760;2024-02-15T06:18:23;5.80;99.90
20208;DHT22;10263;48.716;8.760;2024-02-15T06:20:52;5.80;99.90
20208;DHT22;10263;48.716;8.760;2024-02-15T06:23:19;5.60;99.90
20208;DHT22;10263;48.716;8.760;2024-02-15T06:25:47;5.50;99.90
20208;DHT22;10263;48.716;8.760;2024-02-15T06:28:15;5.80;99.90
20208;DHT22;10263;48.716;8.760;2024-02-15T06:31:06;5.30;99.90
20208;DHT22;10263;48.716;8.760;2024-02-15T06:33:51;5.70;99.90
20208;DHT22;10263;48.716;8.760;2024-02-15T06:36:39;6.10;99.90
20208;DHT22;10263;48.716;8.760;2024-02-15T06:39:23;5.40;99.90
20208;DHT22;10263;48.716;8.760;2024-02-15T06:42:07;5.10;99.90
20208;DHT22;10263;48.716;8.760;2024-02-15T06:44:35;5.20;99.90
20208;DHT22;10263;48.716;8.760;2024-02-15T06:49:29;5.00;99.90
20208;DHT22;10263;48.716;8.760;2024-02-15T06:51:56;5.00;99.90
20208;DHT22;10263;48.716;8.760;2024-02-15T06:54:24;5.30;99.90
20208;DHT22;10263;48.716;8.760;2024-02-15T06:56:51;5.30;99.90
20208;DHT22;10263;48.716;8.760;2024-02-15T06:59:19;5.50;99.90
20208;DHT22;10263;48.716;8.760;2024-02-15T07:01:49;5.40;99.90
20208;DHT22;10263;48.716;8.760;2024-02-15T07:04:18;5.50;99.90
20208;DHT22;10263;48.716;8.760;2024-02-15T07:06:44;8.10;99.90
20208;DHT22;10263;48.716;8.760;2024-02-15T07:09:13;5.40;99.90
20208;DHT22;10263;48.716;8.760;2024-02-15T07:16:36;5.70;99.90
20208;DHT22;10263;48.716;8.760;2024-02-15T07:19:05;5.80;99.90
20208;DHT22;10263;48.716;8.760;2024-02-15T07:24:04;5.30;99.90
20208;DHT22;10263;48.716;8.760;2024-02-15T07:26:31;5.40;99.90
20208;DHT22;10263;48.716;8.760;2024-02-15T07:29:00;5.60;99.90
20208;DHT22;10263;48.716;8.760;2024-02-15T07:31:28;5.60;99.90
20208;DHT22;10263;48.716;8.760;2024-02-15T07:36:24;5.60;99.90
20208;DHT22;10263;48.716;8.760;2024-02-15T07:38:52;6.10;99.90
20208;DHT22;10263;48.716;8.760;2024-02-15T07:41:20;6.20;99.90
20208;DHT22;10263;48.716;8.760;2024-02-15T07:43:48;5.80;99.90
20208;DHT22;10263;48.716;8.760;2024-02-15T07:46:15;5.90;99.90
20208;DHT22;10263;48.716;8.760;2024-02-15T07:51:12;6.00;99.90
20208;DHT22;10263;48.716;8.760;2024-02-15T07:53:39;6.00;99.90
20208;DHT22;10263;48.716;8.760;2024-02-15T07:56:06;6.30;99.90
20208;DHT22;10263;48.716;8.760;2024-02-15T07:58:33;5.90;99.90
20208;DHT22;10263;48.716;8.760;2024-02-15T08:03:27;6.10;99.90
20208;DHT22;10263;48.716;8.760;2024-02-15T08:05:55;6.10;99.90
20208;DHT22;10263;48.716;8.760;2024-02-15T08:08:22;6.60;99.90
20208;DHT22;10263;48.716;8.760;2024-02-15T08:10:50;6.40;99.90
20208;DHT22;10263;48.716;8.760;2024-02-15T08:13:17;6.20;99.90
20208;DHT22;10263;48.716;8.760;2024-02-15T08:15:48;6.60;99.90
20208;DHT22;10263;48.716;8.760;2024-02-15T08:18:18;6.40;99.90
20208;DHT22;10263;48.716;8.760;2024-02-15T08:25:39;6.70;99.90
20208;DHT22;10263;48.716;8.760;2024-02-15T08:28:08;6.60;99.90
20208;DHT22;10263;48.716;8.760;2024-02-15T08:30:37;6.70;99.90
20208;DHT22;10263;48.716;8.760;2024-02-15T08:33:04;7.20;99.90
20208;DHT22;10263;48.716;8.760;2024-02-15T08:35:30;7.10;99.90
20208;DHT22;10263;48.716;8.760;2024-02-15T08:37:58;7.10;99.90
20208;DHT22;10263;48.716;8.760;2024-02-15T08:40:25;7.10;99.90
20208;DHT22;10263;48.716;8.760;2024-02-15T08:42:53;6.90;99.90
20208;DHT22;10263;48.716;8.760;2024-02-15T08:45:22;7.20;99.90
20208;DHT22;10263;48.716;8.760;2024-02-15T08:47:50;7.10;99.90
20208;DHT22;10263;48.716;8.760;2024-02-15T08:50:18;7.40;99.90
20208;DHT22;10263;48.716;8.760;2024-02-15T08:52:48;7.50;99.90
20208;DHT22;10263;48.716;8.760;2024-02-15T08:55:14;7.60;99.90
20208;DHT22;10263;48.716;8.760;2024-02-15T08:57:43;7.50;99.90
20208;DHT22;10263;48.716;8.760;2024-02-15T09:00:11;7.70;99.90
20208;DHT22;10263;48.716;8.760;2024-02-15T09:02:43;8.00;99.90
20208;DHT22;10263;48.716;8.760;2024-02-15T09:05:10;8.40;99.90
20208;DHT22;10263;48.716;8.760;2024-02-15T09:07:39;8.50;99.90
20208;DHT22;10263;48.716;8.760;2024-02-15T09:10:08;10.10;99.90
20208;DHT22;10263;48.716;8.760;2024-02-15T09:12:36;8.40;99.90
20208;DHT22;10263;48.716;8.760;2024-02-15T09:20:07;9.20;99.90
20208;DHT22;10263;48.716;8.760;2024-02-15T09:25:08;9.10;99.90
20208;DHT22;10263;48.716;8.760;2024-02-15T09:27:35;9.50;99.90
20208;DHT22;10263;48.716;8.760;2024-02-15T09:30:02;9.90;99.90
20208;DHT22;10263;48.716;8.760;2024-02-15T09:37:29;10.50;99.90
20208;DHT22;10263;48.716;8.760;2024-02-15T09:42:30;11.30;99.90
20208;DHT22;10263;48.716;8.760;2024-02-15T09:44:59;12.00;99.90
20208;DHT22;10263;48.716;8.760;2024-02-15T09:47:30;12.50;99.90
20208;DHT22;10263;48.716;8.760;2024-02-15T09:49:59;12.80;99.90
20208;DHT22;10263;48.716;8.760;2024-02-15T09:52:26;13.20;99.90
20208;DHT22;10263;48.716;8.760;2024-02-15T09:54:59;13.40;99.90
20208;DHT22;10263;48.716;8.760;2024-02-15T09:57:27;13.90;99.90
20208;DHT22;10263;48.716;8.760;2024-02-15T09:59:54;14.10;99.90
20208;DHT22;10263;48.716;8.760;2024-02-15T10:02:22;14.20;99.90
20208;DHT22;10263;48.716;8.760;2024-02-15T10:04:49;15.40;99.90
20208;DHT22;10263;48.716;8.760;2024-02-15T10:07:16;16.00;99.90
20208;DHT22;10263;48.716;8.760;2024-02-15T10:09:43;16.00;99.90
20208;DHT22;10263;48.716;8.760;2024-02-15T10:12:12;16.70;99.90
20208;DHT22;10263;48.716;8.760;2024-02-15T10:17:08;17.50;99.90
20208;DHT22;10263;48.716;8.760;2024-02-15T10:19:36;18.50;99.90
20208;DHT22;10263;48.716;8.760;2024-02-15T10:22:07;18.90;99.90
20208;DHT22;10263;48.716;8.760;2024-02-15T10:24:34;18.90;99.90
20208;DHT22;10263;48.716;8.760;2024-02-15T10:27:03;19.60;99.90
20208;DHT22;10263;48.716;8.760;2024-02-15T10:29:33;19.70;99.90
20208;DHT22;10263;48.716;8.760;2024-02-15T10:32:01;20.00;99.90
20208;DHT22;10263;48.716;8.760;2024-02-15T10:34:28;20.60;99.90
20208;DHT22;10263;48.716;8.760;2024-02-15T10:37:10;21.20;99.90
20208;DHT22;10263;48.716;8.760;2024-02-15T10:39:38;22.00;99.90
20208;DHT22;10263;48.716;8.760;2024-02-15T10:42:06;22.30;97.20
20208;DHT22;10263;48.716;8.760;2024-02-15T10:44:37;22.50;97.00
20208;DHT22;10263;48.716;8.760;2024-02-15T10:47:07;22.70;96.00
20208;DHT22;10263;48.716;8.760;2024-02-15T10:49:34;23.00;95.00
20208;DHT22;10263;48.716;8.760;2024-02-15T10:52:03;23.80;94.50
20208;DHT22;10263;48.716;8.760;2024-02-15T10:54:45;24.10;93.00
20208;DHT22;10263;48.716;8.760;2024-02-15T10:57:13;24.40;91.90
20208;DHT22;10263;48.716;8.760;2024-02-15T10:59:53;24.00;90.70
20208;DHT22;10263;48.716;8.760;2024-02-15T11:02:27;23.60;90.90
20208;DHT22;10263;48.716;8.760;2024-02-15T11:04:57;24.20;90.10
20208;DHT22;10263;48.716;8.760;2024-02-15T11:07:28;24.20;88.10
20208;DHT22;10263;48.716;8.760;2024-02-15T11:09:56;24.10;88.00
20208;DHT22;10263;48.716;8.760;2024-02-15T11:12:24;23.70;86.00
20208;DHT22;10263;48.716;8.760;2024-02-15T11:14:53;23.70;86.80
20208;DHT22;10263;48.716;8.760;2024-02-15T11:17:47;22.30;87.40
20208;DHT22;10263;48.716;8.760;2024-02-15T11:20:45;21.70;87.40
20208;DHT22;10263;48.716;8.760;2024-02-15T11:23:23;20.80;90.80
20208;DHT22;10263;48.716;8.760;2024-02-15T11:25:50;20.00;91.90
20208;DHT22;10263;48.716;8.760;2024-02-15T11:28:36;19.00;92.80
20208;DHT22;10263;48.716;8.760;2024-02-15T11:31:09;18.80;93.80
20208;DHT22;10263;48.716;8.760;2024-02-15T11:33:38;18.60;94.20
20208;DHT22;10263;48.716;8.760;2024-02-15T11:36:06;18.40;94.30
20208;DHT22;10263;48.716;8.760;2024-02-15T11:38:34;18.20;94.80
20208;DHT22;10263;48.716;8.760;2024-02-15T11:41:04;18.00;95.00
20208;DHT22;10263;48.716;8.760;2024-02-15T11:43:52;18.80;94.80
20208;DHT22;10263;48.716;8.760;2024-02-15T11:46:23;18.70;94.20
20208;DHT22;10263;48.716;8.760;2024-02-15T11:48:52;18.60;95.00
20208;DHT22;10263;48.716;8.760;2024-02-15T11:51:28;19.10;94.80
20208;DHT22;10263;48.716;8.760;2024-02-15T11:54:05;19.20;94.50
20208;DHT22;10263;48.716;8.760;2024-02-15T11:59:17;18.80;93.90
20208;DHT22;10263;48.716;8.760;2024-02-15T12:01:56;18.60;93.50
20208;DHT22;10263;48.716;8.760;2024-02-15T12:04:40;18.70;92.20
20208;DHT22;10263;48.716;8.760;2024-02-15T12:07:24;19.00;94.50
20208;DHT22;10263;48.716;8.760;2024-02-15T12:10:15;19.30;93.40
20208;DHT22;10263;48.716;8.760;2024-02-15T12:13:00;18.90;93.30
20208;DHT22;10263;48.716;8.760;2024-02-15T12:15:57;18.80;93.80
20208;DHT22;10263;48.716;8.760;2024-02-15T12:18:43;19.20;92.10
20208;DHT22;10263;48.716;8.760;2024-02-15T12:21:16;19.30;92.20
20208;DHT22;10263;48.716;8.760;2024-02-15T12:23:44;19.50;93.50
20208;DHT22;10263;48.716;8.760;2024-02-15T12:28:40;19.30;93.30
20208;DHT22;10263;48.716;8.760;2024-02-15T12:31:09;19.00;93.20
20208;DHT22;10263;48.716;8.760;2024-02-15T12:33:39;18.50;92.70
20208;DHT22;10263;48.716;8.760;2024-02-15T12:36:08;18.90;92.60
20208;DHT22;10263;48.716;8.760;2024-02-15T12:38:35;18.60;93.80
20208;DHT22;10263;48.716;8.760;2024-02-15T12:41:04;18.40;94.60
20208;DHT22;10263;48.716;8.760;2024-02-15T12:43:31;18.20;94.40
20208;DHT22;10263;48.716;8.760;2024-02-15T12:48:25;18.20;94.90
20208;DHT22;10263;48.716;8.760;2024-02-15T12:50:52;18.00;94.70
20208;DHT22;10263;48.716;8.760;2024-02-15T12:53:24;18.10;94.70
20208;DHT22;10263;48.716;8.760;2024-02-15T12:55:55;18.10;94.10
20208;DHT22;10263;48.716;8.760;2024-02-15T12:58:22;18.00;94.30
20208;DHT22;10263;48.716;8.760;2024-02-15T13:00:54;18.30;95.10
20208;DHT22;10263;48.716;8.760;2024-02-15T13:03:24;18.10;94.80
20208;DHT22;10263;48.716;8.760;2024-02-15T13:05:51;18.50;95.20
20208;DHT22;10263;48.716;8.760;2024-02-15T13:08:18;18.00;95.10
20208;DHT22;10263;48.716;8.760;2024-02-15T13:10:46;18.10;95.20
20208;DHT22;10263;48.716;8.760;2024-02-15T13:13:13;18.40;94.30
20208;DHT22;10263;48.716;8.760;2024-02-15T13:15:41;18.60;94.70
20208;DHT22;10263;48.716;8.760;2024-02-15T13:18:09;18.70;93.30
20208;DHT22;10263;48.716;8.760;2024-02-15T13:20:36;18.80;93.70
20208;DHT22;10263;48.716;8.760;2024-02-15T13:23:04;19.40;93.60
20208;DHT22;10263;48.716;8.760;2024-02-15T13:25:35;19.50;93.80
20208;DHT22;10263;48.716;8.760;2024-02-15T13:28:04;19.60;93.80
20208;DHT22;10263;48.716;8.760;2024-02-15T13:30:32;19.30;92.40
20208;DHT22;10263;48.716;8.760;2024-02-15T13:32:59;19.40;93.50
20208;DHT22;10263;48.716;8.760;2024-02-15T13:35:27;19.20;93.40
20208;DHT22;10263;48.716;8.760;2024-02-15T13:37:55;18.70;94.10
20208;DHT22;10263;48.716;8.760;2024-02-15T13:40:24;18.80;93.50
20208;DHT22;10263;48.716;8.760;2024-02-15T13:42:54;18.70;93.60
20208;DHT22;10263;48.716;8.760;2024-02-15T13:45:28;18.70;94.40
20208;DHT22;10263;48.716;8.760;2024-02-15T13:47:58;18.40;94.70
20208;DHT22;10263;48.716;8.760;2024-02-15T13:50:28;18.70;94.80
20208;DHT22;10263;48.716;8.760;2024-02-15T13:52:55;19.20;92.90
20208;DHT22;10263;48.716;8.760;2024-02-15T13:55:23;19.40;93.60
20208;DHT22;10263;48.716;8.760;2024-02-15T14:00:19;18.70;93.70
20208;DHT22;10263;48.716;8.760;2024-02-15T14:03:02;19.20;92.10
20208;DHT22;10263;48.716;8.760;2024-02-15T14:08:08;20.20;91.60
20208;DHT22;10263;48.716;8.760;2024-02-15T14:10:36;20.40;92.40
20208;DHT22;10263;48.716;8.760;2024-02-15T14:13:03;20.10;91.60
20208;DHT22;10263;48.716;8.760;2024-02-15T14:15:31;20.10;89.80
20208;DHT22;10263;48.716;8.760;2024-02-15T14:18:01;19.80;91.90
20208;DHT22;10263;48.716;8.760;2024-02-15T14:26:19;19.90;91.20
20208;DHT22;10263;48.716;8.760;2024-02-15T14:28:47;20.70;91.50
20208;DHT22;10263;48.716;8.760;2024-02-15T14:35:04;21.10;87.00
20208;DHT22;10263;48.716;8.760;2024-02-15T14:39:59;21.20;89.10
20208;DHT22;10263;48.716;8.760;2024-02-15T14:42:26;21.60;89.90
20208;DHT22;10263;48.716;8.760;2024-02-15T14:44:52;20.80;86.10
20208;DHT22;10263;48.716;8.760;2024-02-15T14:47:19;21.30;90.40
20208;DHT22;10263;48.716;8.760;2024-02-15T14:52:15;20.40;90.10
20208;DHT22;10263;48.716;8.760;2024-02-15T14:54:42;20.30;90.20
20208;DHT22;10263;48.716;8.760;2024-02-15T14:57:08;20.20;90.50
20208;DHT22;10263;48.716;8.760;2024-02-15T14:59:35;20.20;90.60
20208;DHT22;10263;48.716;8.760;2024-02-15T15:02:04;20.00;91.00
20208;DHT22;10263;48.716;8.760;2024-02-15T15:04:34;19.90;90.80
20208;DHT22;10263;48.716;8.760;2024-02-15T15:07:22;19.30;91.10
20208;DHT22;10263;48.716;8.760;2024-02-15T15:10:10;19.30;90.80
20208;DHT22;10263;48.716;8.760;2024-02-15T15:15:22;19.00;92.70
20208;DHT22;10263;48.716;8.760;2024-02-15T15:17:49;18.90;93.20
20208;DHT22;10263;48.716;8.760;2024-02-15T15:20:16;18.60;93.40
20208;DHT22;10263;48.716;8.760;2024-02-15T15:22:45;17.80;93.60
20208;DHT22;10263;48.716;8.760;2024-02-15T15:25:12;18.20;92.50
20208;DHT22;10263;48.716;8.760;2024-02-15T15:27:38;17.50;93.40
20208;DHT22;10263;48.716;8.760;2024-02-15T15:30:06;17.50;92.90
20208;DHT22;10263;48.716;8.760;2024-02-15T15:32:33;17.00;94.90
20208;DHT22;10263;48.716;8.760;2024-02-15T15:35:01;16.90;95.20
20208;DHT22;10263;48.716;8.760;2024-02-15T15:39:56;16.70;96.20
20208;DHT22;10263;48.716;8.760;2024-02-15T15:42:23;16.50;95.30
20208;DHT22;10263;48.716;8.760;2024-02-15T15:44:49;16.30;96.50
20208;DHT22;10263;48.716;8.760;2024-02-15T15:47:16;16.00;96.90
20208;DHT22;10263;48.716;8.760;2024-02-15T15:54:39;15.50;98.20
20208;DHT22;10263;48.716;8.760;2024-02-15T15:57:08;15.20;98.50
20208;DHT22;10263;48.716;8.760;2024-02-15T15:59:35;15.50;99.10
20208;DHT22;10263;48.716;8.760;2024-02-15T16:02:02;15.00;99.10
20208;DHT22;10263;48.716;8.760;2024-02-15T16:04:30;15.30;99.50
20208;DHT22;10263;48.716;8.760;2024-02-15T16:06:57;15.10;99.80
20208;DHT22;10263;48.716;8.760;2024-02-15T16:09:24;15.30;99.90
20208;DHT22;10263;48.716;8.760;2024-02-15T16:11:50;14.60;99.90
20208;DHT22;10263;48.716;8.760;2024-02-15T16:14:57;14.60;99.90
20208;DHT22;10263;48.716;8.760;2024-02-15T16:17:24;14.50;99.90
20208;DHT22;10263;48.716;8.760;2024-02-15T16:22:18;14.70;99.90
20208;DHT22;10263;48.716;8.760;2024-02-15T16:24:47;14.40;99.90
20208;DHT22;10263;48.716;8.760;2024-02-15T16:27:14;14.40;99.90
20208;DHT22;10263;48.716;8.760;2024-02-15T16:29:40;13.70;99.90
20208;DHT22;10263;48.716;8.760;2024-02-15T16:32:08;14.20;99.90
20208;DHT22;10263;48.716;8.760;2024-02-15T16:37:03;13.70;99.90
20208;DHT22;10263;48.716;8.760;2024-02-15T16:39:29;13.70;99.90
20208;DHT22;10263;48.716;8.760;2024-02-15T16:41:56;13.30;99.90
20208;DHT22;10263;48.716;8.760;2024-02-15T16:44:23;13.80;99.90
20208;DHT22;10263;48.716;8.760;2024-02-15T16:46:50;13.70;99.90
20208;DHT22;10263;48.716;8.760;2024-02-15T16:49:18;14.10;99.90
20208;DHT22;10263;48.716;8.760;2024-02-15T16:51:45;13.70;99.90
20208;DHT22;10263;48.716;8.760;2024-02-15T16:54:12;13.40;99.90
20208;DHT22;10263;48.716;8.760;2024-02-15T16:59:07;13.50;99.90
20208;DHT22;10263;48.716;8.760;2024-02-15T17:01:37;13.20;99.90
20208;DHT22;10263;48.716;8.760;2024-02-15T17:04:04;13.40;99.90
20208;DHT22;10263;48.716;8.760;2024-02-15T17:06:34;13.30;99.90
20208;DHT22;10263;48.716;8.760;2024-02-15T17:13:56;13.00;99.90
20208;DHT22;10263;48.716;8.760;2024-02-15T17:16:26;12.80;99.90
20208;DHT22;10263;48.716;8.760;2024-02-15T17:21:21;13.60;99.90
20208;DHT22;10263;48.716;8.760;2024-02-15T17:23:50;12.70;99.90
20208;DHT22;10263;48.716;8.760;2024-02-15T17:26:17;12.80;99.90
20208;DHT22;10263;48.716;8.760;2024-02-15T17:28:44;12.30;99.90
20208;DHT22;10263;48.716;8.760;2024-02-15T17:31:14;12.40;99.90
20208;DHT22;10263;48.716;8.760;2024-02-15T17:33:41;12.40;99.90
20208;DHT22;10263;48.716;8.760;2024-02-15T17:36:09;12.10;99.90
20208;DHT22;10263;48.716;8.760;2024-02-15T17:38:37;12.10;99.90
20208;DHT22;10263;48.716;8.760;2024-02-15T17:41:05;12.40;99.90
20208;DHT22;10263;48.716;8.760;2024-02-15T17:43:32;12.30;99.90
20208;DHT22;10263;48.716;8.760;2024-02-15T17:45:58;12.10;99.90
20208;DHT22;10263;48.716;8.760;2024-02-15T17:48:25;12.20;99.90
20208;DHT22;10263;48.716;8.760;2024-02-15T17:50:53;12.20;99.90
20208;DHT22;10263;48.716;8.760;2024-02-15T17:53:20;12.60;99.90
20208;DHT22;10263;48.716;8.760;2024-02-15T17:58:17;12.30;99.90
20208;DHT22;10263;48.716;8.760;2024-02-15T18:00:45;11.70;99.90
20208;DHT22;10263;48.716;8.760;2024-02-15T18:03:12;12.30;99.90
20208;DHT22;10263;48.716;8.760;2024-02-15T18:05:39;12.00;99.90
20208;DHT22;10263;48.716;8.760;2024-02-15T18:10:40;12.10;99.90
20208;DHT22;10263;48.716;8.760;2024-02-15T18:13:06;11.90;99.90
20208;DHT22;10263;48.716;8.760;2024-02-15T18:15:35;12.10;99.90
20208;DHT22;10263;48.716;8.760;2024-02-15T18:18:10;11.90;99.90
20208;DHT22;10263;48.716;8.760;2024-02-15T18:20:37;11.80;99.90
20208;DHT22;10263;48.716;8.760;2024-02-15T18:23:04;11.60;99.90
20208;DHT22;10263;48.716;8.760;2024-02-15T18:25:34;11.90;99.90
20208;DHT22;10263;48.716;8.760;2024-02-15T18:28:00;12.00;99.90
20208;DHT22;10263;48.716;8.760;2024-02-15T18:30:27;11.60;99.90
20208;DHT22;10263;48.716;8.760;2024-02-15T18:33:00;12.00;99.90
20208;DHT22;10263;48.716;8.760;2024-02-15T18:35:29;11.70;99.90
20208;DHT22;10263;48.716;8.760;2024-02-15T18:40:23;11.70;99.90
20208;DHT22;10263;48.716;8.760;2024-02-15T18:42:52;11.80;99.90
20208;DHT22;10263;48.716;8.760;2024-02-15T18:45:19;12.00;99.90
20208;DHT22;10263;48.716;8.760;2024-02-15T18:50:14;11.60;99.90
20208;DHT22;10263;48.716;8.760;2024-02-15T18:52:44;11.40;99.90
20208;DHT22;10263;48.716;8.760;2024-02-15T18:55:11;11.40;99.90